Hovedside
METAR-TAF:

METAR-TAF

Lufthavner :

Volgograd, Russland

breddegrad: 48-47N, lengdegrad: 044-22E, høyde over havet: 145 m

Gjeldene værobservasjon

Denne rapporten ble laget for 18 minutter siden, klokken 17:30 UTC
Vind 8 kt fra Øst-sørøst
Temperatur 26°C
Luftfuktighet 26%
Trykk 1011 hPa
Sikt 10 km eller mer
ingen skyer under 1500 m og ingen bygeskyer

METAR: URWW 231730Z 12004MPS CAVOK 26/05 Q1011 R06/010070 NOSIG

Tid: 20:48 (17:48 UTC)

Varsel

Denne rapporten ble laget for 51 minutter siden, klokken 16:57 UTC
Varsel gyldig fra 23. klokken 18 UTC til 24. klokken 03 UTC
Vind 6 kt fra Øst med vindkast opp mot 16 kt
Sikt 10 km eller mer
ingen skyer under 1500 m og ingen bygeskyer
Midlertidig
fra 23. klokken 18 UTC til 24. klokken 03 UTC
Vind 10 kt fra Sørøst med vindkast opp mot 19 kt

TAF: URWW 231657Z 2318/2403 10003G08MPS CAVOK TEMPO 2318/2403 13005G10MPS

Værobservasjoner og værvarsel for over 4000 flyplasser (METAR- og TAF-rapporter).

Tilgjengelige stasjoner er representert av de røde og gule prikkene på kartet.

Hold musepekeren over prikken for å se navnet på stasjonen.

Klikk så for å se værobservasjoner og -varsler.

For å forandre kartet kan du klikke på den grønne knappen med svart kryss for å zoome inn, på den grønne knappen med strek for å zoome ut, eller på de grønne pilene for å se tilstøtende kart.


METAR-TAF: